Kezdőlap
METAR-TAF:

METAR-TAF

Repülőterek :

Gibraltári repülőtér

Gibraltár, Gibraltár

földrajzi szélesség: 36-09N, földrajzi hosszúság: 005-21W, magasság: 5 m

Jelenlegi meteorológiai megfigyelések

A jelentés 39 perccel ezelõtt készült, 03:50 UTC
Keleti szél 2 kt
Hőmérséklet 12°C
Páratartalom 100%
Légköri nyomás 1026 hPa
Látótávolság: 7000 m

METAR: LXGB 100350Z AUTO 08002KT 7000 // FEW004/// 12/12 Q1026

Idő: 05:29 (04:29 UTC)

Előrejelzés

A jelentés 11 órával és 21 perccel ezelõtt készült, 17:08 UTC
Az előrejelzés 09-én 18 óra UTC és 09-én 23 óra UTC között érvényes
Keleti szél 7 kt
Látótávolság 10 km, vagy több
Kevés felhő 700 lábon
Valószínűség 40% :
09-én 18 óra UTC és 09-én 23 óra UTC között ideiglenes
Látótávolság: 7000 m
Szórványos felhőzet 700 lábon
Száraz légköri homály

TAF: LXGB 091708Z 0918/0923 08007KT 9999 FEW007 PROB40 TEMPO 0918/0923 7000 HZ SCT007

Meteorológiai megfigyelések és előrejelzések több, mint 4000 repülőtéren (METAR és TAF jelentéseket).

A térképen piros és sárga pontok jelzik az elérhető meteorológiai állomásokat.

Mozgassa az egeret a pont fölött, hogy megjelenjen az állomás neve.

Azután kattintson az időjárási megfigyelések és előrejelzések megtekintéséhez.

A térkép megváltoztatása: kattintson a fekete keresztel jelölt zöld gombra ráközelítéshez, a vonallal jelölt zöld gombra távolításhoz, vagy a zöld nyilakra a szomszédos térképek eléréséhez.


METAR-TAF: